createdAt,value
2022-09-05T00:02:50.943Z,7.90
2022-09-05T00:06:02.427Z,9.20
2022-09-05T00:09:00.772Z,8.63
2022-09-05T00:12:04.983Z,9.45
2022-09-05T00:15:14.517Z,8.80
2022-09-05T00:24:22.750Z,8.60
2022-09-05T00:24:30.777Z,8.18
2022-09-05T00:25:31.709Z,7.78
2022-09-05T00:28:34.215Z,9.73
2022-09-05T00:31:54.175Z,9.10
2022-09-05T00:34:48.130Z,8.65
2022-09-05T00:37:48.304Z,8.00
2022-09-05T00:40:37.156Z,8.70
2022-09-05T00:43:30.103Z,8.68
2022-09-05T00:46:22.841Z,8.85
2022-09-05T00:49:41.012Z,9.38
2022-09-05T00:52:29.040Z,8.98
2022-09-05T00:55:46.017Z,9.57
2022-09-05T00:58:54.024Z,9.23
2022-09-05T01:02:26.051Z,9.73
2022-09-05T01:05:53.016Z,9.20
2022-09-05T01:08:50.684Z,8.63
2022-09-05T01:11:45.130Z,9.57
2022-09-05T01:14:33.752Z,9.32
2022-09-05T01:17:48.407Z,9.00
2022-09-05T01:20:54.019Z,9.15
2022-09-05T01:24:29.750Z,8.85
2022-09-05T01:29:13.273Z,10.32
2022-09-05T01:30:54.872Z,10.48
2022-09-05T01:33:49.186Z,9.35
2022-09-05T01:36:44.844Z,10.02
2022-09-05T01:40:12.374Z,11.48
2022-09-05T01:42:42.143Z,9.38
2022-09-05T01:45:50.642Z,9.88
2022-09-05T01:48:33.487Z,9.63
2022-09-05T01:51:33.872Z,10.05
2022-09-05T01:54:50.400Z,10.60
2022-09-05T01:58:03.787Z,9.52
2022-09-05T02:01:25.465Z,10.45
2022-09-05T02:04:34.871Z,9.98
2022-09-05T02:07:31.145Z,9.18
2022-09-05T02:10:26.763Z,9.73
2022-09-05T02:14:12.855Z,9.57
2022-09-05T02:17:51.546Z,9.23
2022-09-05T02:20:52.070Z,10.57
2022-09-05T02:23:45.722Z,9.30
2022-09-05T02:26:41.866Z,11.63
2022-09-05T02:29:36.387Z,10.52
2022-09-05T02:33:00.004Z,10.60
2022-09-05T02:36:11.160Z,9.93
2022-09-05T02:45:00.456Z,9.77
2022-09-05T02:45:09.523Z,10.07
2022-09-05T02:46:34.936Z,9.88
2022-09-05T02:52:27.610Z,9.52
2022-09-05T02:57:29.587Z,9.70
2022-09-05T02:57:38.791Z,10.20
2022-09-05T03:00:13.310Z,9.82
2022-09-05T03:03:19.880Z,9.85
2022-09-05T03:06:46.712Z,10.38
2022-09-05T03:10:02.853Z,9.82
2022-09-05T03:13:14.852Z,8.95
2022-09-05T03:16:40.519Z,10.82
2022-09-05T03:19:56.090Z,10.00
2022-09-05T03:23:02.317Z,9.82
2022-09-05T03:26:24.103Z,9.40
2022-09-05T03:29:24.144Z,9.18
2022-09-05T03:32:53.076Z,10.27
2022-09-05T03:36:19.120Z,9.48
2022-09-05T03:39:19.836Z,10.18
2022-09-05T03:42:36.979Z,9.88
2022-09-05T03:46:16.127Z,10.00
2022-09-05T03:51:05.036Z,8.65
2022-09-05T03:57:08.399Z,9.20
2022-09-05T03:57:25.812Z,9.20
2022-09-05T03:59:59.856Z,9.00
2022-09-05T04:08:10.246Z,9.23
2022-09-05T04:08:20.442Z,8.75
2022-09-05T04:09:50.035Z,7.95
2022-09-05T04:15:34.155Z,8.02
2022-09-05T04:18:33.085Z,7.72
2022-09-05T04:21:52.116Z,8.75
2022-09-05T04:24:53.111Z,7.72
2022-09-05T04:27:47.522Z,8.35
2022-09-05T04:30:52.085Z,8.07
2022-09-05T04:33:46.389Z,8.68
2022-09-05T04:36:45.853Z,8.85
2022-09-05T04:39:28.455Z,9.73
2022-09-05T04:42:29.087Z,8.18
2022-09-05T04:45:24.486Z,8.60
2022-09-05T04:48:22.260Z,8.13
2022-09-05T04:51:13.389Z,9.50
2022-09-05T04:54:16.851Z,8.93
2022-09-05T05:04:23.749Z,9.80
2022-09-05T05:06:18.351Z,10.10
2022-09-05T05:06:47.112Z,9.25
2022-09-05T05:10:25.549Z,9.00
2022-09-05T05:17:56.337Z,9.43
2022-09-05T05:18:14.520Z,9.25
2022-09-05T05:19:47.316Z,7.30
2022-09-05T05:23:21.751Z,6.07
2022-09-05T05:26:08.486Z,7.78
2022-09-05T05:29:31.013Z,8.50
2022-09-05T05:32:49.002Z,7.32
2022-09-05T05:35:47.964Z,7.63
2022-09-05T05:38:44.008Z,7.78
2022-09-05T05:41:41.033Z,6.20
2022-09-05T05:44:45.093Z,5.75
2022-09-05T05:47:34.393Z,5.63
2022-09-05T05:50:28.853Z,5.30
2022-09-05T05:53:43.532Z,6.07
2022-09-05T05:56:28.987Z,4.50
2022-09-05T05:59:27.021Z,4.40
2022-09-05T06:02:47.234Z,4.55
2022-09-05T06:06:43.105Z,4.35
2022-09-05T06:14:52.832Z,3.67
2022-09-05T06:15:01.325Z,4.40
2022-09-05T06:17:09.004Z,3.97
2022-09-05T06:22:08.551Z,3.83
2022-09-05T06:23:45.096Z,3.70
2022-09-05T06:26:36.413Z,4.23
2022-09-05T06:29:46.969Z,4.00
2022-09-05T06:32:39.035Z,3.50
2022-09-05T06:35:37.139Z,4.00
2022-09-05T06:38:24.927Z,3.72
2022-09-05T06:41:25.141Z,3.45
2022-09-05T06:44:38.365Z,3.60
2022-09-05T06:47:34.201Z,3.42
2022-09-05T06:50:53.231Z,3.50
2022-09-05T06:53:53.023Z,3.20
2022-09-05T06:56:55.384Z,3.25
2022-09-05T07:00:21.916Z,3.10
2022-09-05T07:03:36.331Z,3.30
2022-09-05T07:07:01.984Z,3.42
2022-09-05T07:09:54.140Z,3.22
2022-09-05T07:12:52.010Z,3.80
2022-09-05T07:15:44.785Z,3.20
2022-09-05T07:19:02.628Z,3.33
2022-09-05T07:22:29.538Z,2.90
2022-09-05T07:25:30.329Z,3.35
2022-09-05T07:28:28.704Z,3.30
2022-09-05T07:31:37.605Z,3.30
2022-09-05T07:34:33.993Z,3.67
2022-09-05T07:37:23.207Z,4.15
2022-09-05T07:40:26.007Z,3.83
2022-09-05T07:46:31.000Z,4.53
2022-09-05T07:49:17.190Z,3.92
2022-09-05T07:56:50.435Z,4.35
2022-09-05T07:57:06.273Z,4.38
2022-09-05T07:58:58.795Z,4.35
2022-09-05T08:01:41.275Z,4.00
2022-09-05T08:04:42.185Z,4.10
2022-09-05T08:07:48.971Z,4.32
2022-09-05T08:11:22.394Z,4.28
2022-09-05T08:13:48.232Z,4.72
2022-09-05T08:16:36.924Z,5.75
2022-09-05T08:19:40.107Z,5.30
2022-09-05T08:22:31.799Z,6.60
2022-09-05T08:25:34.991Z,7.68
2022-09-05T08:28:58.881Z,7.25
2022-09-05T08:32:03.753Z,6.45
2022-09-05T08:35:13.866Z,6.10
2022-09-05T08:38:05.906Z,6.97
2022-09-05T08:41:42.973Z,5.97
2022-09-05T08:46:42.012Z,6.00
2022-09-05T08:48:14.921Z,5.80
2022-09-05T08:51:12.189Z,5.75
2022-09-05T08:54:33.886Z,5.28
2022-09-05T08:58:00.013Z,5.47
2022-09-05T09:01:04.521Z,5.40
2022-09-05T09:04:04.493Z,5.90
2022-09-05T09:07:43.696Z,6.25
2022-09-05T09:10:43.403Z,5.90
2022-09-05T09:13:52.104Z,5.63
2022-09-05T09:16:40.005Z,5.40
2022-09-05T09:20:00.143Z,5.70
2022-09-05T09:22:56.348Z,5.63
2022-09-05T09:25:52.844Z,5.80
2022-09-05T09:28:51.452Z,5.68
2022-09-05T09:32:04.749Z,6.05
2022-09-05T09:34:56.293Z,6.10
2022-09-05T09:38:00.107Z,6.57
2022-09-05T09:41:42.920Z,5.43
2022-09-05T09:44:59.750Z,5.78
2022-09-05T09:48:14.879Z,5.95
2022-09-05T09:51:23.877Z,5.25
2022-09-05T09:54:42.177Z,5.53
2022-09-05T09:57:56.038Z,5.82
2022-09-05T10:01:35.367Z,5.68
2022-09-05T10:10:34.484Z,6.13
2022-09-05T10:11:22.735Z,5.75
2022-09-05T10:11:54.670Z,5.80
2022-09-05T10:14:53.405Z,5.82
2022-09-05T10:17:46.746Z,5.13
2022-09-05T10:20:50.968Z,5.68
2022-09-05T10:24:00.066Z,6.32
2022-09-05T10:27:13.155Z,5.60
2022-09-05T10:31:17.439Z,4.32
2022-09-05T10:35:09.288Z,4.72
2022-09-05T10:37:06.175Z,5.18
2022-09-05T10:40:12.856Z,6.60
2022-09-05T10:43:25.043Z,4.07
2022-09-05T10:46:50.320Z,4.22
2022-09-05T10:49:45.884Z,4.03
2022-09-05T10:53:09.559Z,3.55
2022-09-05T10:56:19.069Z,4.63
2022-09-05T11:01:27.626Z,3.58
2022-09-05T11:02:36.746Z,3.42
2022-09-05T11:05:41.906Z,3.78
2022-09-05T11:09:01.850Z,4.35
2022-09-05T11:12:01.108Z,3.90
2022-09-05T11:14:58.777Z,4.03
2022-09-05T11:18:04.647Z,3.00
2022-09-05T11:21:02.833Z,3.38
2022-09-05T11:23:56.840Z,2.88
2022-09-05T11:27:23.474Z,3.42
2022-09-05T11:30:08.446Z,3.22
2022-09-05T11:39:36.454Z,2.63
2022-09-05T11:39:55.602Z,3.03
2022-09-05T11:40:31.052Z,2.72
2022-09-05T11:43:13.394Z,3.20
2022-09-05T11:46:22.877Z,3.80
2022-09-05T11:49:14.123Z,3.78
2022-09-05T11:52:23.886Z,3.78
2022-09-05T11:55:43.130Z,3.92
2022-09-05T11:58:55.929Z,4.35
2022-09-05T12:01:44.087Z,4.03
2022-09-05T12:05:51.165Z,3.22
2022-09-05T12:08:28.883Z,3.60
2022-09-05T12:11:44.109Z,4.13
2022-09-05T12:14:42.419Z,4.07
2022-09-05T12:17:46.105Z,3.35
2022-09-05T12:20:46.005Z,3.83
2022-09-05T12:23:54.039Z,3.70
2022-09-05T12:27:44.850Z,4.00
2022-09-05T12:30:55.037Z,3.75
2022-09-05T12:36:02.662Z,3.85
2022-09-05T12:40:53.800Z,4.17
2022-09-05T12:41:36.422Z,3.50
2022-09-05T12:44:38.220Z,3.28
2022-09-05T12:47:16.999Z,4.03
2022-09-05T12:50:14.059Z,3.70
2022-09-05T12:53:17.086Z,3.55
2022-09-05T12:57:17.239Z,3.20
2022-09-05T13:02:55.314Z,3.15
2022-09-05T13:03:01.533Z,4.07
2022-09-05T13:05:30.998Z,3.88
2022-09-05T13:08:29.012Z,3.60
2022-09-05T13:14:48.530Z,3.83
2022-09-05T13:14:58.076Z,3.28
2022-09-05T13:17:46.156Z,3.85
2022-09-05T13:20:47.186Z,4.10
2022-09-05T13:23:34.415Z,4.28
2022-09-05T13:26:32.076Z,3.35
2022-09-05T13:29:39.906Z,3.50
2022-09-05T13:37:59.202Z,4.57
2022-09-05T13:38:13.078Z,5.03
2022-09-05T13:39:20.054Z,4.05
2022-09-05T13:42:11.378Z,4.75
2022-09-05T13:45:03.803Z,4.60
2022-09-05T13:47:58.050Z,4.78
2022-09-05T13:50:56.078Z,4.95
2022-09-05T13:53:44.838Z,4.40
2022-09-05T13:56:40.381Z,5.13
2022-09-05T13:59:24.082Z,4.97
2022-09-05T14:02:28.304Z,5.03
2022-09-05T14:05:44.910Z,5.25
2022-09-05T14:12:23.737Z,5.90
2022-09-05T14:15:36.808Z,6.78
2022-09-05T14:19:03.315Z,7.57
2022-09-05T14:21:47.005Z,7.85
2022-09-05T14:24:39.996Z,7.00
2022-09-05T14:27:30.351Z,6.03
2022-09-05T14:31:26.531Z,5.90
2022-09-05T14:37:44.745Z,6.30
2022-09-05T14:37:53.461Z,5.93
2022-09-05T14:40:29.807Z,7.15
2022-09-05T14:43:26.934Z,6.38
2022-09-05T14:46:34.169Z,7.07
2022-09-05T14:49:35.790Z,7.43
2022-09-05T14:52:43.701Z,7.72
2022-09-05T14:55:30.466Z,7.18
2022-09-05T15:02:41.334Z,9.90
2022-09-05T15:02:44.503Z,9.82
2022-09-05T15:04:33.370Z,11.10
2022-09-05T15:07:35.545Z,11.50
2022-09-05T15:12:16.061Z,11.50
2022-09-05T15:14:14.155Z,10.23
2022-09-05T15:17:04.804Z,9.13
2022-09-05T15:20:07.575Z,7.85
2022-09-05T15:23:09.864Z,7.70
2022-09-05T15:26:39.093Z,8.82
2022-09-05T15:29:36.129Z,9.18
2022-09-05T15:32:35.043Z,8.15
2022-09-05T15:35:35.123Z,8.48
2022-09-05T15:38:54.936Z,9.25
2022-09-05T15:41:43.101Z,10.07
2022-09-05T15:45:09.083Z,10.00
2022-09-05T15:48:34.113Z,11.02
2022-09-05T15:51:34.304Z,12.05
2022-09-05T15:54:58.883Z,13.32
2022-09-05T15:57:52.038Z,14.52
2022-09-05T16:00:51.823Z,16.15
2022-09-05T16:07:15.067Z,16.85
2022-09-05T16:10:38.255Z,17.23
2022-09-05T16:10:40.129Z,17.97
2022-09-05T16:13:16.663Z,18.00
2022-09-05T16:21:35.649Z,18.90
2022-09-05T16:23:25.119Z,19.58
2022-09-05T16:23:30.449Z,19.88
2022-09-05T16:26:07.467Z,20.98
2022-09-05T16:29:36.222Z,21.08
2022-09-05T16:32:37.635Z,20.25
2022-09-05T16:35:35.197Z,20.80
2022-09-05T16:38:49.763Z,18.63
2022-09-05T16:41:53.416Z,17.95
2022-09-05T16:45:09.643Z,18.50
2022-09-05T16:47:59.279Z,18.60
2022-09-05T16:51:18.331Z,18.30
2022-09-05T16:54:48.244Z,17.50
2022-09-05T16:57:46.049Z,17.13
2022-09-05T17:00:39.215Z,17.42
2022-09-05T17:03:50.546Z,18.58
2022-09-05T17:06:45.802Z,18.63
2022-09-05T17:09:48.650Z,18.48
2022-09-05T17:12:40.040Z,18.27
2022-09-05T17:15:51.918Z,17.13
2022-09-05T17:18:48.726Z,17.13
2022-09-05T17:24:38.688Z,15.50
2022-09-05T17:29:24.827Z,14.43
2022-09-05T17:29:32.173Z,13.93
2022-09-05T17:32:28.933Z,13.40
2022-09-05T17:35:50.188Z,12.57
2022-09-05T17:38:57.163Z,14.13
2022-09-05T17:41:44.518Z,13.70
2022-09-05T17:44:43.444Z,14.50
2022-09-05T17:47:35.529Z,15.93
2022-09-05T17:50:35.300Z,17.05
2022-09-05T17:53:28.954Z,18.33
2022-09-05T17:56:21.008Z,18.75
2022-09-05T17:59:10.783Z,19.33
2022-09-05T18:02:15.202Z,20.13
2022-09-05T18:05:11.251Z,21.02
2022-09-05T18:07:57.765Z,20.65
2022-09-05T18:11:25.281Z,21.33
2022-09-05T18:14:25.070Z,20.42
2022-09-05T18:18:04.148Z,20.25
2022-09-05T18:20:52.033Z,22.25
2022-09-05T18:24:07.961Z,21.25
2022-09-05T18:30:25.114Z,14.88
2022-09-05T18:33:55.515Z,11.90
2022-09-05T18:39:46.209Z,9.68
2022-09-05T18:42:38.164Z,8.60
2022-09-05T18:45:34.147Z,9.32
2022-09-05T18:48:31.378Z,8.88
2022-09-05T18:51:25.169Z,10.77
2022-09-05T18:54:20.305Z,11.40
2022-09-05T18:57:26.409Z,10.10
2022-09-05T19:00:15.150Z,10.05
2022-09-05T19:03:17.143Z,10.02
2022-09-05T19:06:35.751Z,9.63
2022-09-05T19:09:26.678Z,9.82
2022-09-05T19:12:32.137Z,9.73
2022-09-05T19:15:34.087Z,10.25
2022-09-05T19:18:35.186Z,9.32
2022-09-05T19:21:33.162Z,9.63
2022-09-05T19:24:30.368Z,9.65
2022-09-05T19:29:01.338Z,8.95
2022-09-05T19:36:47.436Z,8.95
2022-09-05T19:37:10.872Z,8.73
2022-09-05T19:37:28.865Z,8.80
2022-09-05T19:43:53.999Z,8.40
2022-09-05T19:47:48.901Z,9.48
2022-09-05T19:47:55.699Z,8.82
2022-09-05T19:49:42.464Z,8.57
2022-09-05T19:52:35.212Z,8.45
2022-09-05T19:55:41.067Z,8.02
2022-09-05T19:58:25.807Z,8.68
2022-09-05T20:01:31.223Z,9.48
2022-09-05T20:04:17.644Z,8.63
2022-09-05T20:07:06.132Z,9.43
2022-09-05T20:10:06.099Z,9.18
2022-09-05T20:12:54.496Z,10.35
2022-09-05T20:15:52.143Z,10.30
2022-09-05T20:19:00.630Z,10.45
2022-09-05T20:21:48.934Z,11.00
2022-09-05T20:24:32.967Z,11.38
2022-09-05T20:27:26.949Z,12.35
2022-09-05T20:30:12.957Z,11.48
2022-09-05T20:33:08.101Z,11.52
2022-09-05T20:39:56.204Z,11.55
2022-09-05T20:43:17.274Z,11.38
2022-09-05T20:43:36.698Z,12.10
2022-09-05T20:47:36.548Z,12.55
2022-09-05T20:54:20.151Z,13.00
2022-09-05T20:54:21.142Z,12.90
2022-09-05T20:55:40.010Z,11.40
2022-09-05T20:58:32.886Z,12.70
2022-09-05T21:01:25.126Z,12.07
2022-09-05T21:04:14.866Z,11.23
2022-09-05T21:07:30.030Z,10.52
2022-09-05T21:10:33.321Z,11.32
2022-09-05T21:13:51.971Z,10.35
2022-09-05T21:16:56.953Z,10.75
2022-09-05T21:19:39.432Z,10.45
2022-09-05T21:22:31.984Z,9.82
2022-09-05T21:25:14.208Z,9.65
2022-09-05T21:28:15.012Z,11.13
2022-09-05T21:30:59.972Z,10.50
2022-09-05T21:33:58.572Z,11.70
2022-09-05T21:36:50.568Z,10.57
2022-09-05T21:40:00.514Z,10.10
2022-09-05T21:46:04.582Z,10.25
2022-09-05T21:47:40.993Z,12.48
2022-09-05T21:48:56.708Z,14.45
2022-09-05T21:51:48.256Z,16.33
2022-09-05T21:59:24.481Z,18.13
2022-09-05T21:59:30.627Z,20.70
2022-09-05T22:00:55.016Z,22.60
2022-09-05T22:03:37.427Z,25.45
2022-09-05T22:06:26.129Z,28.05
2022-09-05T22:09:12.959Z,36.05
2022-09-05T22:12:06.079Z,45.00
2022-09-05T22:15:29.233Z,57.83
2022-09-05T22:18:18.267Z,60.67
2022-09-05T22:21:32.490Z,66.03
2022-09-05T22:24:09.461Z,69.18
2022-09-05T22:27:12.690Z,69.75
2022-09-05T22:30:05.114Z,67.32
2022-09-05T22:32:48.446Z,61.78
2022-09-05T22:35:37.042Z,57.88
2022-09-05T22:38:29.124Z,51.50
2022-09-05T22:41:30.071Z,49.22
2022-09-05T22:44:15.785Z,48.35
2022-09-05T22:46:58.437Z,45.92
2022-09-05T22:49:47.044Z,40.15
2022-09-05T22:52:29.342Z,40.83
2022-09-05T22:55:18.023Z,41.00
2022-09-05T22:58:00.378Z,41.25
2022-09-05T23:00:49.137Z,42.92
2022-09-05T23:03:38.412Z,43.92
2022-09-05T23:06:21.048Z,46.28
2022-09-05T23:09:04.725Z,45.35
2022-09-05T23:11:54.029Z,47.63
2022-09-05T23:14:36.373Z,47.67
2022-09-05T23:17:32.019Z,52.17
2022-09-05T23:20:15.520Z,55.90
2022-09-05T23:23:05.161Z,57.08
2022-09-05T23:25:53.412Z,61.25
2022-09-05T23:28:39.455Z,64.60
2022-09-05T23:31:24.457Z,68.53
2022-09-05T23:34:13.096Z,75.35
2022-09-05T23:37:02.557Z,75.32
2022-09-05T23:39:44.187Z,80.38
2022-09-05T23:42:32.420Z,75.25
2022-09-05T23:45:16.094Z,76.00
2022-09-05T23:48:06.715Z,73.85
2022-09-05T23:50:50.139Z,76.78
2022-09-05T23:53:38.398Z,74.45
2022-09-05T23:56:21.037Z,71.45
